sensor_id;sensor_type;location;lat;lon;timestamp;P1;durP1;ratioP1;P2;durP2;ratioP2
75997;SDS011;64685;48.762;44.822;2023-07-30T00:03:07;4.20;;;1.40;;
75997;SDS011;64685;48.762;44.822;2023-07-30T00:08:10;3.33;;;1.30;;
75997;SDS011;64685;48.762;44.822;2023-07-30T00:13:13;2.85;;;1.00;;
75997;SDS011;64685;48.762;44.822;2023-07-30T00:18:16;4.07;;;1.40;;
75997;SDS011;64685;48.762;44.822;2023-07-30T00:23:19;3.20;;;1.25;;
75997;SDS011;64685;48.762;44.822;2023-07-30T00:28:21;4.40;;;1.33;;
75997;SDS011;64685;48.762;44.822;2023-07-30T00:33:24;3.25;;;1.17;;
75997;SDS011;64685;48.762;44.822;2023-07-30T00:38:27;3.67;;;1.45;;
75997;SDS011;64685;48.762;44.822;2023-07-30T00:43:30;3.35;;;1.30;;
75997;SDS011;64685;48.762;44.822;2023-07-30T00:48:33;4.05;;;1.50;;
75997;SDS011;64685;48.762;44.822;2023-07-30T00:53:35;3.67;;;1.50;;
75997;SDS011;64685;48.762;44.822;2023-07-30T00:58:39;4.50;;;1.30;;
75997;SDS011;64685;48.762;44.822;2023-07-30T01:03:43;4.95;;;1.70;;
75997;SDS011;64685;48.762;44.822;2023-07-30T01:08:47;2.40;;;1.25;;
75997;SDS011;64685;48.762;44.822;2023-07-30T01:13:50;3.17;;;1.13;;
75997;SDS011;64685;48.762;44.822;2023-07-30T01:18:53;4.82;;;1.65;;
75997;SDS011;64685;48.762;44.822;2023-07-30T01:23:56;3.45;;;1.48;;
75997;SDS011;64685;48.762;44.822;2023-07-30T01:29:00;4.63;;;1.35;;
75997;SDS011;64685;48.762;44.822;2023-07-30T01:34:06;4.15;;;1.67;;
75997;SDS011;64685;48.762;44.822;2023-07-30T01:39:12;4.28;;;1.50;;
75997;SDS011;64685;48.762;44.822;2023-07-30T01:49:20;5.10;;;1.60;;
75997;SDS011;64685;48.762;44.822;2023-07-30T01:54:23;4.63;;;1.80;;
75997;SDS011;64685;48.762;44.822;2023-07-30T01:59:26;5.13;;;1.63;;
75997;SDS011;64685;48.762;44.822;2023-07-30T02:04:29;4.75;;;2.10;;
75997;SDS011;64685;48.762;44.822;2023-07-30T02:09:32;6.00;;;2.10;;
75997;SDS011;64685;48.762;44.822;2023-07-30T02:14:35;3.45;;;1.67;;
75997;SDS011;64685;48.762;44.822;2023-07-30T02:19:40;5.05;;;2.20;;
75997;SDS011;64685;48.762;44.822;2023-07-30T02:24:44;5.68;;;2.17;;
75997;SDS011;64685;48.762;44.822;2023-07-30T02:29:46;3.95;;;1.90;;
75997;SDS011;64685;48.762;44.822;2023-07-30T02:34:49;5.13;;;2.40;;
75997;SDS011;64685;48.762;44.822;2023-07-30T02:39:52;5.13;;;2.53;;
75997;SDS011;64685;48.762;44.822;2023-07-30T02:44:54;5.60;;;2.63;;
75997;SDS011;64685;48.762;44.822;2023-07-30T02:49:58;4.78;;;1.85;;
75997;SDS011;64685;48.762;44.822;2023-07-30T02:55:01;7.75;;;2.95;;
75997;SDS011;64685;48.762;44.822;2023-07-30T03:00:04;6.78;;;2.67;;
75997;SDS011;64685;48.762;44.822;2023-07-30T03:05:08;6.65;;;2.55;;
75997;SDS011;64685;48.762;44.822;2023-07-30T03:10:11;6.25;;;2.60;;
75997;SDS011;64685;48.762;44.822;2023-07-30T03:15:13;5.28;;;2.65;;
75997;SDS011;64685;48.762;44.822;2023-07-30T03:20:16;7.13;;;2.58;;
75997;SDS011;64685;48.762;44.822;2023-07-30T03:25:19;8.75;;;3.05;;
75997;SDS011;64685;48.762;44.822;2023-07-30T03:35:25;7.55;;;3.10;;
75997;SDS011;64685;48.762;44.822;2023-07-30T03:40:28;6.18;;;2.83;;
75997;SDS011;64685;48.762;44.822;2023-07-30T03:50:35;7.63;;;2.40;;
75997;SDS011;64685;48.762;44.822;2023-07-30T03:55:37;6.82;;;2.50;;
75997;SDS011;64685;48.762;44.822;2023-07-30T04:00:40;7.00;;;3.10;;
75997;SDS011;64685;48.762;44.822;2023-07-30T04:05:43;6.18;;;2.67;;
75997;SDS011;64685;48.762;44.822;2023-07-30T04:15:48;4.80;;;2.13;;
75997;SDS011;64685;48.762;44.822;2023-07-30T04:20:53;7.13;;;3.00;;
75997;SDS011;64685;48.762;44.822;2023-07-30T04:25:57;5.45;;;2.55;;
75997;SDS011;64685;48.762;44.822;2023-07-30T04:30:59;5.07;;;1.92;;
75997;SDS011;64685;48.762;44.822;2023-07-30T04:36:03;3.22;;;1.85;;
75997;SDS011;64685;48.762;44.822;2023-07-30T04:41:06;5.20;;;2.17;;
75997;SDS011;64685;48.762;44.822;2023-07-30T04:46:16;4.13;;;1.90;;
75997;SDS011;64685;48.762;44.822;2023-07-30T04:51:19;5.50;;;1.90;;
75997;SDS011;64685;48.762;44.822;2023-07-30T05:01:24;4.13;;;1.92;;
75997;SDS011;64685;48.762;44.822;2023-07-30T05:06:27;4.35;;;2.00;;
75997;SDS011;64685;48.762;44.822;2023-07-30T05:11:31;4.65;;;1.80;;
75997;SDS011;64685;48.762;44.822;2023-07-30T05:16:33;4.60;;;2.25;;
75997;SDS011;64685;48.762;44.822;2023-07-30T05:21:38;3.70;;;1.67;;
75997;SDS011;64685;48.762;44.822;2023-07-30T05:26:41;4.82;;;2.00;;
75997;SDS011;64685;48.762;44.822;2023-07-30T05:31:44;3.72;;;1.85;;
75997;SDS011;64685;48.762;44.822;2023-07-30T05:36:46;4.10;;;1.90;;
75997;SDS011;64685;48.762;44.822;2023-07-30T05:41:49;7.68;;;2.28;;
75997;SDS011;64685;48.762;44.822;2023-07-30T05:46:52;4.95;;;1.58;;
75997;SDS011;64685;48.762;44.822;2023-07-30T05:51:55;5.72;;;1.75;;
75997;SDS011;64685;48.762;44.822;2023-07-30T05:56:57;3.85;;;1.48;;
75997;SDS011;64685;48.762;44.822;2023-07-30T06:02:01;3.13;;;1.38;;
75997;SDS011;64685;48.762;44.822;2023-07-30T06:07:05;3.95;;;1.35;;
75997;SDS011;64685;48.762;44.822;2023-07-30T06:12:08;3.42;;;1.50;;
75997;SDS011;64685;48.762;44.822;2023-07-30T06:17:10;3.70;;;1.48;;
75997;SDS011;64685;48.762;44.822;2023-07-30T06:22:13;4.30;;;1.30;;
75997;SDS011;64685;48.762;44.822;2023-07-30T06:27:16;3.38;;;1.33;;
75997;SDS011;64685;48.762;44.822;2023-07-30T06:32:19;4.75;;;1.27;;
75997;SDS011;64685;48.762;44.822;2023-07-30T06:37:21;5.03;;;1.83;;
75997;SDS011;64685;48.762;44.822;2023-07-30T06:42:24;4.35;;;1.40;;
75997;SDS011;64685;48.762;44.822;2023-07-30T06:47:27;3.10;;;1.27;;
75997;SDS011;64685;48.762;44.822;2023-07-30T06:52:30;4.72;;;1.67;;
75997;SDS011;64685;48.762;44.822;2023-07-30T06:57:32;5.20;;;1.50;;
75997;SDS011;64685;48.762;44.822;2023-07-30T07:02:35;6.47;;;1.52;;
75997;SDS011;64685;48.762;44.822;2023-07-30T07:07:39;4.43;;;1.55;;
75997;SDS011;64685;48.762;44.822;2023-07-30T07:12:42;4.38;;;2.05;;
75997;SDS011;64685;48.762;44.822;2023-07-30T07:17:44;3.00;;;1.30;;
75997;SDS011;64685;48.762;44.822;2023-07-30T07:22:47;2.45;;;1.70;;
75997;SDS011;64685;48.762;44.822;2023-07-30T07:27:50;3.38;;;1.63;;
75997;SDS011;64685;48.762;44.822;2023-07-30T07:32:53;4.22;;;1.73;;
75997;SDS011;64685;48.762;44.822;2023-07-30T07:37:57;3.72;;;1.60;;
75997;SDS011;64685;48.762;44.822;2023-07-30T07:43:00;4.47;;;1.45;;
75997;SDS011;64685;48.762;44.822;2023-07-30T07:48:03;2.95;;;1.50;;
75997;SDS011;64685;48.762;44.822;2023-07-30T07:53:05;3.65;;;1.33;;
75997;SDS011;64685;48.762;44.822;2023-07-30T07:58:08;2.25;;;1.35;;
75997;SDS011;64685;48.762;44.822;2023-07-30T08:03:11;2.58;;;1.33;;
75997;SDS011;64685;48.762;44.822;2023-07-30T08:08:14;2.63;;;1.15;;
75997;SDS011;64685;48.762;44.822;2023-07-30T08:13:17;3.55;;;1.35;;
75997;SDS011;64685;48.762;44.822;2023-07-30T08:18:19;3.63;;;1.45;;
75997;SDS011;64685;48.762;44.822;2023-07-30T08:23:22;3.30;;;1.67;;
75997;SDS011;64685;48.762;44.822;2023-07-30T08:28:25;3.45;;;1.52;;
75997;SDS011;64685;48.762;44.822;2023-07-30T08:33:27;2.80;;;1.30;;
75997;SDS011;64685;48.762;44.822;2023-07-30T08:38:31;2.92;;;1.25;;
75997;SDS011;64685;48.762;44.822;2023-07-30T08:43:34;3.95;;;1.35;;
75997;SDS011;64685;48.762;44.822;2023-07-30T08:48:37;2.95;;;1.20;;
75997;SDS011;64685;48.762;44.822;2023-07-30T08:53:40;2.47;;;1.50;;
75997;SDS011;64685;48.762;44.822;2023-07-30T08:58:44;3.45;;;1.20;;
75997;SDS011;64685;48.762;44.822;2023-07-30T09:03:48;4.22;;;1.13;;
75997;SDS011;64685;48.762;44.822;2023-07-30T09:08:53;6.40;;;1.40;;
75997;SDS011;64685;48.762;44.822;2023-07-30T09:13:56;2.63;;;1.10;;
75997;SDS011;64685;48.762;44.822;2023-07-30T09:18:58;4.05;;;1.20;;
75997;SDS011;64685;48.762;44.822;2023-07-30T09:24:02;2.70;;;1.30;;
75997;SDS011;64685;48.762;44.822;2023-07-30T09:29:08;5.55;;;1.20;;
75997;SDS011;64685;48.762;44.822;2023-07-30T09:34:14;4.07;;;1.20;;
75997;SDS011;64685;48.762;44.822;2023-07-30T09:39:25;3.63;;;1.38;;
75997;SDS011;64685;48.762;44.822;2023-07-30T09:44:29;3.13;;;1.20;;
75997;SDS011;64685;48.762;44.822;2023-07-30T09:49:35;3.53;;;1.08;;
75997;SDS011;64685;48.762;44.822;2023-07-30T09:54:41;2.53;;;0.98;;
75997;SDS011;64685;48.762;44.822;2023-07-30T09:59:44;2.35;;;1.02;;
75997;SDS011;64685;48.762;44.822;2023-07-30T10:04:47;3.15;;;1.33;;
75997;SDS011;64685;48.762;44.822;2023-07-30T10:09:53;3.95;;;1.20;;
75997;SDS011;64685;48.762;44.822;2023-07-30T10:15:00;2.88;;;1.10;;
75997;SDS011;64685;48.762;44.822;2023-07-30T10:30:59;4.00;;;1.23;;
75997;SDS011;64685;48.762;44.822;2023-07-30T10:36:03;2.80;;;1.20;;
75997;SDS011;64685;48.762;44.822;2023-07-30T10:41:06;2.80;;;1.17;;
75997;SDS011;64685;48.762;44.822;2023-07-30T10:46:12;4.55;;;1.48;;
75997;SDS011;64685;48.762;44.822;2023-07-30T10:51:16;3.83;;;1.48;;
75997;SDS011;64685;48.762;44.822;2023-07-30T10:56:22;4.03;;;1.73;;
75997;SDS011;64685;48.762;44.822;2023-07-30T11:01:28;3.03;;;1.10;;
75997;SDS011;64685;48.762;44.822;2023-07-30T11:06:31;2.38;;;1.00;;
75997;SDS011;64685;48.762;44.822;2023-07-30T11:11:33;4.65;;;1.20;;
75997;SDS011;64685;48.762;44.822;2023-07-30T11:16:37;3.45;;;1.00;;
75997;SDS011;64685;48.762;44.822;2023-07-30T11:21:45;1.98;;;1.02;;
75997;SDS011;64685;48.762;44.822;2023-07-30T11:26:58;4.20;;;1.27;;
75997;SDS011;64685;48.762;44.822;2023-07-30T11:32:02;3.65;;;1.30;;
75997;SDS011;64685;48.762;44.822;2023-07-30T11:37:06;9.05;;;2.05;;
75997;SDS011;64685;48.762;44.822;2023-07-30T11:42:09;6.13;;;1.90;;
75997;SDS011;64685;48.762;44.822;2023-07-30T11:47:12;7.32;;;1.27;;
75997;SDS011;64685;48.762;44.822;2023-07-30T11:52:24;3.78;;;1.25;;
75997;SDS011;64685;48.762;44.822;2023-07-30T12:02:39;3.47;;;1.15;;
75997;SDS011;64685;48.762;44.822;2023-07-30T12:07:42;2.67;;;1.00;;
75997;SDS011;64685;48.762;44.822;2023-07-30T12:12:45;2.88;;;1.02;;
75997;SDS011;64685;48.762;44.822;2023-07-30T12:17:48;5.63;;;1.30;;
75997;SDS011;64685;48.762;44.822;2023-07-30T12:27:53;2.28;;;0.95;;
75997;SDS011;64685;48.762;44.822;2023-07-30T12:37:59;3.08;;;1.08;;
75997;SDS011;64685;48.762;44.822;2023-07-30T12:43:03;2.15;;;0.80;;
75997;SDS011;64685;48.762;44.822;2023-07-30T12:48:05;2.45;;;0.80;;
75997;SDS011;64685;48.762;44.822;2023-07-30T12:53:10;3.10;;;0.95;;
75997;SDS011;64685;48.762;44.822;2023-07-30T12:58:13;3.50;;;1.10;;
75997;SDS011;64685;48.762;44.822;2023-07-30T13:03:16;1.85;;;1.10;;
75997;SDS011;64685;48.762;44.822;2023-07-30T13:13:22;4.15;;;1.05;;
75997;SDS011;64685;48.762;44.822;2023-07-30T13:18:25;3.95;;;1.10;;
75997;SDS011;64685;48.762;44.822;2023-07-30T13:23:28;2.35;;;1.00;;
75997;SDS011;64685;48.762;44.822;2023-07-30T13:28:32;2.92;;;0.98;;
75997;SDS011;64685;48.762;44.822;2023-07-30T13:38:37;2.78;;;0.90;;
75997;SDS011;64685;48.762;44.822;2023-07-30T13:43:41;2.03;;;0.90;;
75997;SDS011;64685;48.762;44.822;2023-07-30T13:48:44;3.25;;;1.00;;
75997;SDS011;64685;48.762;44.822;2023-07-30T13:53:46;2.60;;;1.00;;
75997;SDS011;64685;48.762;44.822;2023-07-30T13:58:49;2.78;;;1.10;;
75997;SDS011;64685;48.762;44.822;2023-07-30T14:08:54;2.50;;;0.93;;
75997;SDS011;64685;48.762;44.822;2023-07-30T14:13:57;3.63;;;0.90;;
75997;SDS011;64685;48.762;44.822;2023-07-30T14:24:02;2.88;;;1.52;;
75997;SDS011;64685;48.762;44.822;2023-07-30T14:34:07;3.17;;;1.30;;
75997;SDS011;64685;48.762;44.822;2023-07-30T14:39:10;4.32;;;1.65;;
75997;SDS011;64685;48.762;44.822;2023-07-30T14:44:13;5.82;;;1.30;;
75997;SDS011;64685;48.762;44.822;2023-07-30T14:49:16;3.05;;;1.50;;
75997;SDS011;64685;48.762;44.822;2023-07-30T14:54:19;3.60;;;1.25;;
75997;SDS011;64685;48.762;44.822;2023-07-30T14:59:22;4.45;;;1.40;;
75997;SDS011;64685;48.762;44.822;2023-07-30T15:04:25;3.25;;;1.65;;
75997;SDS011;64685;48.762;44.822;2023-07-30T15:09:28;3.30;;;1.20;;
75997;SDS011;64685;48.762;44.822;2023-07-30T15:14:36;3.92;;;1.60;;
75997;SDS011;64685;48.762;44.822;2023-07-30T15:19:38;4.32;;;1.45;;
75997;SDS011;64685;48.762;44.822;2023-07-30T15:24:41;3.92;;;1.58;;
75997;SDS011;64685;48.762;44.822;2023-07-30T15:29:44;3.95;;;1.50;;
75997;SDS011;64685;48.762;44.822;2023-07-30T15:34:46;3.53;;;1.27;;
75997;SDS011;64685;48.762;44.822;2023-07-30T15:39:49;3.40;;;1.40;;
75997;SDS011;64685;48.762;44.822;2023-07-30T15:44:52;4.32;;;1.52;;
75997;SDS011;64685;48.762;44.822;2023-07-30T15:49:54;2.78;;;1.30;;
75997;SDS011;64685;48.762;44.822;2023-07-30T15:54:57;4.55;;;1.58;;
75997;SDS011;64685;48.762;44.822;2023-07-30T16:00:00;3.65;;;1.45;;
75997;SDS011;64685;48.762;44.822;2023-07-30T16:05:13;3.55;;;1.60;;
75997;SDS011;64685;48.762;44.822;2023-07-30T16:10:16;7.68;;;1.88;;
75997;SDS011;64685;48.762;44.822;2023-07-30T16:15:20;4.95;;;1.90;;
75997;SDS011;64685;48.762;44.822;2023-07-30T16:20:23;5.30;;;1.80;;
75997;SDS011;64685;48.762;44.822;2023-07-30T16:25:26;5.22;;;2.33;;
75997;SDS011;64685;48.762;44.822;2023-07-30T16:30:28;6.90;;;2.53;;
75997;SDS011;64685;48.762;44.822;2023-07-30T16:35:31;6.18;;;2.72;;
75997;SDS011;64685;48.762;44.822;2023-07-30T16:40:33;7.90;;;2.63;;
75997;SDS011;64685;48.762;44.822;2023-07-30T16:45:36;8.73;;;2.70;;
75997;SDS011;64685;48.762;44.822;2023-07-30T16:50:43;6.60;;;2.70;;
75997;SDS011;64685;48.762;44.822;2023-07-30T16:55:47;7.40;;;2.50;;
75997;SDS011;64685;48.762;44.822;2023-07-30T17:00:58;10.82;;;3.30;;
75997;SDS011;64685;48.762;44.822;2023-07-30T17:06:02;8.40;;;3.38;;
75997;SDS011;64685;48.762;44.822;2023-07-30T17:11:06;6.43;;;2.97;;
75997;SDS011;64685;48.762;44.822;2023-07-30T17:16:10;9.38;;;3.08;;
75997;SDS011;64685;48.762;44.822;2023-07-30T17:21:13;7.90;;;3.00;;
75997;SDS011;64685;48.762;44.822;2023-07-30T17:26:16;7.38;;;2.78;;
75997;SDS011;64685;48.762;44.822;2023-07-30T17:31:18;7.43;;;2.83;;
75997;SDS011;64685;48.762;44.822;2023-07-30T17:36:21;7.13;;;3.10;;
75997;SDS011;64685;48.762;44.822;2023-07-30T17:41:24;7.85;;;3.50;;
75997;SDS011;64685;48.762;44.822;2023-07-30T17:46:27;9.50;;;3.70;;
75997;SDS011;64685;48.762;44.822;2023-07-30T17:51:30;8.60;;;3.70;;
75997;SDS011;64685;48.762;44.822;2023-07-30T17:56:32;10.07;;;3.58;;
75997;SDS011;64685;48.762;44.822;2023-07-30T18:01:36;9.50;;;3.85;;
75997;SDS011;64685;48.762;44.822;2023-07-30T18:06:39;9.30;;;3.70;;
75997;SDS011;64685;48.762;44.822;2023-07-30T18:11:42;8.07;;;3.85;;
75997;SDS011;64685;48.762;44.822;2023-07-30T18:16:45;9.80;;;4.07;;
75997;SDS011;64685;48.762;44.822;2023-07-30T18:21:48;8.18;;;3.72;;
75997;SDS011;64685;48.762;44.822;2023-07-30T18:26:51;11.00;;;5.15;;
75997;SDS011;64685;48.762;44.822;2023-07-30T18:31:54;11.85;;;4.80;;
75997;SDS011;64685;48.762;44.822;2023-07-30T18:37:07;13.52;;;5.95;;
75997;SDS011;64685;48.762;44.822;2023-07-30T18:42:10;13.73;;;6.18;;
75997;SDS011;64685;48.762;44.822;2023-07-30T18:47:12;15.73;;;6.20;;
75997;SDS011;64685;48.762;44.822;2023-07-30T18:52:16;13.13;;;6.15;;
75997;SDS011;64685;48.762;44.822;2023-07-30T18:57:19;14.18;;;5.65;;
75997;SDS011;64685;48.762;44.822;2023-07-30T19:02:22;12.02;;;6.40;;
75997;SDS011;64685;48.762;44.822;2023-07-30T19:07:25;13.30;;;6.32;;
75997;SDS011;64685;48.762;44.822;2023-07-30T19:12:28;19.48;;;7.68;;
75997;SDS011;64685;48.762;44.822;2023-07-30T19:17:31;19.13;;;9.23;;
75997;SDS011;64685;48.762;44.822;2023-07-30T19:22:34;17.35;;;8.07;;
75997;SDS011;64685;48.762;44.822;2023-07-30T19:32:40;18.30;;;9.30;;
75997;SDS011;64685;48.762;44.822;2023-07-30T19:37:43;16.85;;;8.10;;
75997;SDS011;64685;48.762;44.822;2023-07-30T19:42:47;17.63;;;7.32;;
75997;SDS011;64685;48.762;44.822;2023-07-30T19:47:49;15.93;;;7.82;;
75997;SDS011;64685;48.762;44.822;2023-07-30T19:52:53;14.65;;;7.10;;
75997;SDS011;64685;48.762;44.822;2023-07-30T19:57:57;12.52;;;6.82;;
75997;SDS011;64685;48.762;44.822;2023-07-30T20:03:00;16.40;;;8.02;;
75997;SDS011;64685;48.762;44.822;2023-07-30T20:08:03;15.32;;;7.85;;
75997;SDS011;64685;48.762;44.822;2023-07-30T20:13:06;16.08;;;7.72;;
75997;SDS011;64685;48.762;44.822;2023-07-30T20:18:08;11.85;;;7.38;;
75997;SDS011;64685;48.762;44.822;2023-07-30T20:23:11;13.00;;;5.53;;
75997;SDS011;64685;48.762;44.822;2023-07-30T20:28:13;10.48;;;5.88;;
75997;SDS011;64685;48.762;44.822;2023-07-30T20:33:16;11.38;;;5.68;;
75997;SDS011;64685;48.762;44.822;2023-07-30T20:38:19;9.98;;;4.60;;
75997;SDS011;64685;48.762;44.822;2023-07-30T20:43:22;8.38;;;3.50;;
75997;SDS011;64685;48.762;44.822;2023-07-30T20:48:24;8.10;;;3.53;;
75997;SDS011;64685;48.762;44.822;2023-07-30T20:53:27;7.82;;;4.28;;
75997;SDS011;64685;48.762;44.822;2023-07-30T20:58:30;7.05;;;3.40;;
75997;SDS011;64685;48.762;44.822;2023-07-30T21:03:33;8.25;;;3.47;;
75997;SDS011;64685;48.762;44.822;2023-07-30T21:08:36;6.72;;;3.25;;
75997;SDS011;64685;48.762;44.822;2023-07-30T21:13:38;8.13;;;3.20;;
75997;SDS011;64685;48.762;44.822;2023-07-30T21:18:41;8.70;;;3.30;;
75997;SDS011;64685;48.762;44.822;2023-07-30T21:23:44;5.90;;;3.03;;
75997;SDS011;64685;48.762;44.822;2023-07-30T21:28:46;8.10;;;3.47;;
75997;SDS011;64685;48.762;44.822;2023-07-30T21:33:49;8.27;;;3.10;;
75997;SDS011;64685;48.762;44.822;2023-07-30T21:38:51;6.05;;;3.10;;
75997;SDS011;64685;48.762;44.822;2023-07-30T21:43:54;9.75;;;3.60;;
75997;SDS011;64685;48.762;44.822;2023-07-30T21:48:57;6.43;;;3.08;;
75997;SDS011;64685;48.762;44.822;2023-07-30T21:54:06;7.78;;;3.47;;
75997;SDS011;64685;48.762;44.822;2023-07-30T21:59:08;8.80;;;3.85;;
75997;SDS011;64685;48.762;44.822;2023-07-30T22:04:11;7.65;;;3.80;;
75997;SDS011;64685;48.762;44.822;2023-07-30T22:09:14;10.18;;;3.47;;
75997;SDS011;64685;48.762;44.822;2023-07-30T22:14:16;8.40;;;3.75;;
75997;SDS011;64685;48.762;44.822;2023-07-30T22:19:19;7.60;;;3.47;;
75997;SDS011;64685;48.762;44.822;2023-07-30T22:24:22;7.70;;;3.38;;
75997;SDS011;64685;48.762;44.822;2023-07-30T22:29:24;7.20;;;3.15;;
75997;SDS011;64685;48.762;44.822;2023-07-30T22:34:27;8.60;;;3.42;;
75997;SDS011;64685;48.762;44.822;2023-07-30T22:39:30;7.38;;;3.88;;
75997;SDS011;64685;48.762;44.822;2023-07-30T22:44:33;8.30;;;3.63;;
75997;SDS011;64685;48.762;44.822;2023-07-30T22:49:36;8.75;;;3.80;;
75997;SDS011;64685;48.762;44.822;2023-07-30T22:54:39;7.75;;;3.83;;
75997;SDS011;64685;48.762;44.822;2023-07-30T22:59:42;9.60;;;4.28;;
75997;SDS011;64685;48.762;44.822;2023-07-30T23:04:44;6.65;;;3.17;;
75997;SDS011;64685;48.762;44.822;2023-07-30T23:09:47;8.45;;;3.83;;
75997;SDS011;64685;48.762;44.822;2023-07-30T23:14:50;8.73;;;4.22;;
75997;SDS011;64685;48.762;44.822;2023-07-30T23:19:52;8.07;;;3.38;;
75997;SDS011;64685;48.762;44.822;2023-07-30T23:24:55;7.28;;;3.58;;
75997;SDS011;64685;48.762;44.822;2023-07-30T23:45:33;8.93;;;3.35;;
75997;SDS011;64685;48.762;44.822;2023-07-30T23:50:36;6.20;;;3.30;;
75997;SDS011;64685;48.762;44.822;2023-07-30T23:55:42;7.65;;;3.40;;
